sensor_id;sensor_type;location;lat;lon;timestamp;pressure;altitude;pressure_sealevel;temperature;humidity
60267;BME280;46125;61.360;-149.532;2022-10-26T00:01:04;97768.91;;;-4.33;59.60
60267;BME280;46125;61.360;-149.532;2022-10-26T00:03:34;97764.59;;;-4.10;59.84
60267;BME280;46125;61.360;-149.532;2022-10-26T00:06:05;97752.62;;;-3.89;57.26
60267;BME280;46125;61.360;-149.532;2022-10-26T00:08:34;97747.55;;;-5.24;62.59
60267;BME280;46125;61.360;-149.532;2022-10-26T00:11:02;97737.40;;;-3.55;58.33
60267;BME280;46125;61.360;-149.532;2022-10-26T00:13:31;97729.47;;;-4.66;59.08
60267;BME280;46125;61.360;-149.532;2022-10-26T00:15:59;97724.13;;;-3.15;57.57
60267;BME280;46125;61.360;-149.532;2022-10-26T00:18:28;97716.99;;;-3.63;57.13
60267;BME280;46125;61.360;-149.532;2022-10-26T00:21:02;97702.54;;;-2.81;53.75
60267;BME280;46125;61.360;-149.532;2022-10-26T00:23:30;97704.81;;;-3.90;57.72
60267;BME280;46125;61.360;-149.532;2022-10-26T00:25:59;97693.39;;;-4.65;60.09
60267;BME280;46125;61.360;-149.532;2022-10-26T00:28:28;97685.80;;;-3.95;59.36
60267;BME280;46125;61.360;-149.532;2022-10-26T00:31:00;97675.49;;;-4.70;60.50
60267;BME280;46125;61.360;-149.532;2022-10-26T00:33:30;97675.59;;;-4.65;60.51
60267;BME280;46125;61.360;-149.532;2022-10-26T00:36:00;97656.10;;;-3.39;56.84
60267;BME280;46125;61.360;-149.532;2022-10-26T00:38:28;97642.20;;;-4.02;56.18
60267;BME280;46125;61.360;-149.532;2022-10-26T00:40:57;97628.03;;;-4.91;58.61
60267;BME280;46125;61.360;-149.532;2022-10-26T00:43:36;97623.94;;;-3.94;57.62
60267;BME280;46125;61.360;-149.532;2022-10-26T00:46:08;97613.63;;;-3.61;55.47
60267;BME280;46125;61.360;-149.532;2022-10-26T00:48:42;97593.31;;;-3.28;56.05
60267;BME280;46125;61.360;-149.532;2022-10-26T00:51:17;97585.92;;;-3.72;57.54
60267;BME280;46125;61.360;-149.532;2022-10-26T00:53:48;97575.22;;;-3.80;55.96
60267;BME280;46125;61.360;-149.532;2022-10-26T00:56:18;97570.58;;;-4.42;57.34
60267;BME280;46125;61.360;-149.532;2022-10-26T00:58:46;97565.36;;;-2.99;54.72
60267;BME280;46125;61.360;-149.532;2022-10-26T01:01:15;97553.41;;;-2.63;53.50
60267;BME280;46125;61.360;-149.532;2022-10-26T01:03:44;97537.92;;;-2.68;51.65
60267;BME280;46125;61.360;-149.532;2022-10-26T01:06:13;97542.26;;;-3.79;55.67
60267;BME280;46125;61.360;-149.532;2022-10-26T01:08:43;97531.14;;;-3.74;55.47
60267;BME280;46125;61.360;-149.532;2022-10-26T01:11:12;97527.05;;;-3.49;57.29
60267;BME280;46125;61.360;-149.532;2022-10-26T01:13:41;97517.55;;;-2.75;52.43
60267;BME280;46125;61.360;-149.532;2022-10-26T01:16:25;97501.69;;;-4.13;54.68
60267;BME280;46125;61.360;-149.532;2022-10-26T01:19:12;97487.44;;;-4.18;54.82
60267;BME280;46125;61.360;-149.532;2022-10-26T01:21:55;97497.28;;;-5.03;57.59
60267;BME280;46125;61.360;-149.532;2022-10-26T01:24:46;97477.81;;;-4.44;55.90
60267;BME280;46125;61.360;-149.532;2022-10-26T01:27:24;97464.90;;;-4.58;55.87
60267;BME280;46125;61.360;-149.532;2022-10-26T01:30:22;97448.10;;;-3.89;53.18
60267;BME280;46125;61.360;-149.532;2022-10-26T01:33:29;97439.82;;;-4.09;56.87
60267;BME280;46125;61.360;-149.532;2022-10-26T01:36:05;97420.06;;;-3.48;52.20
60267;BME280;46125;61.360;-149.532;2022-10-26T01:38:46;97410.15;;;-4.40;57.28
60267;BME280;46125;61.360;-149.532;2022-10-26T01:41:26;97400.98;;;-4.51;58.24
60267;BME280;46125;61.360;-149.532;2022-10-26T01:43:58;97396.86;;;-4.38;56.82
60267;BME280;46125;61.360;-149.532;2022-10-26T01:46:32;97394.30;;;-3.90;55.65
60267;BME280;46125;61.360;-149.532;2022-10-26T01:49:07;97388.92;;;-3.40;52.68
60267;BME280;46125;61.360;-149.532;2022-10-26T01:51:38;97389.48;;;-2.14;50.38
60267;BME280;46125;61.360;-149.532;2022-10-26T01:54:07;97373.05;;;-1.99;47.97
60267;BME280;46125;61.360;-149.532;2022-10-26T01:56:39;97353.23;;;-2.69;50.25
60267;BME280;46125;61.360;-149.532;2022-10-26T01:59:22;97350.05;;;-3.47;50.34
60267;BME280;46125;61.360;-149.532;2022-10-26T02:02:13;97349.69;;;-2.30;49.87
60267;BME280;46125;61.360;-149.532;2022-10-26T02:04:55;97345.29;;;-3.39;49.65
60267;BME280;46125;61.360;-149.532;2022-10-26T02:07:33;97349.90;;;-1.56;49.56
60267;BME280;46125;61.360;-149.532;2022-10-26T02:10:15;97347.43;;;-1.11;47.48
60267;BME280;46125;61.360;-149.532;2022-10-26T02:12:51;97333.96;;;-0.95;45.29
60267;BME280;46125;61.360;-149.532;2022-10-26T02:15:26;97342.49;;;-2.84;51.44
60267;BME280;46125;61.360;-149.532;2022-10-26T02:17:59;97338.45;;;-2.68;50.02
60267;BME280;46125;61.360;-149.532;2022-10-26T02:20:34;97338.97;;;-1.65;49.23
60267;BME280;46125;61.360;-149.532;2022-10-26T02:23:04;97315.34;;;-1.02;47.01
60267;BME280;46125;61.360;-149.532;2022-10-26T02:25:38;97319.54;;;-1.87;50.43
60267;BME280;46125;61.360;-149.532;2022-10-26T02:28:11;97305.35;;;-2.55;51.80
60267;BME280;46125;61.360;-149.532;2022-10-26T02:30:42;97304.93;;;-2.29;51.63
60267;BME280;46125;61.360;-149.532;2022-10-26T02:33:13;97281.90;;;-3.13;52.21
60267;BME280;46125;61.360;-149.532;2022-10-26T02:35:45;97291.24;;;-2.37;51.61
60267;BME280;46125;61.360;-149.532;2022-10-26T02:38:19;97275.04;;;-1.71;50.31
60267;BME280;46125;61.360;-149.532;2022-10-26T02:40:51;97265.64;;;-3.24;50.82
60267;BME280;46125;61.360;-149.532;2022-10-26T02:43:21;97260.28;;;-1.01;46.62
60267;BME280;46125;61.360;-149.532;2022-10-26T02:45:52;97250.55;;;-1.17;48.23
60267;BME280;46125;61.360;-149.532;2022-10-26T02:48:24;97239.73;;;-1.77;47.94
60267;BME280;46125;61.360;-149.532;2022-10-26T02:50:58;97235.00;;;-1.04;46.94
60267;BME280;46125;61.360;-149.532;2022-10-26T02:53:31;97234.34;;;-1.54;48.13
60267;BME280;46125;61.360;-149.532;2022-10-26T02:56:06;97225.31;;;-1.86;47.70
60267;BME280;46125;61.360;-149.532;2022-10-26T02:58:40;97220.88;;;-0.63;47.31
60267;BME280;46125;61.360;-149.532;2022-10-26T03:01:11;97208.02;;;-1.16;47.53
60267;BME280;46125;61.360;-149.532;2022-10-26T03:03:40;97194.47;;;-1.39;46.75
60267;BME280;46125;61.360;-149.532;2022-10-26T03:06:09;97193.96;;;-1.41;47.79
60267;BME280;46125;61.360;-149.532;2022-10-26T03:08:37;97177.13;;;-0.06;45.30
60267;BME280;46125;61.360;-149.532;2022-10-26T03:11:05;97171.04;;;-0.76;47.51
60267;BME280;46125;61.360;-149.532;2022-10-26T03:13:34;97169.56;;;-0.38;45.72
60267;BME280;46125;61.360;-149.532;2022-10-26T03:16:02;97168.45;;;0.20;44.27
60267;BME280;46125;61.360;-149.532;2022-10-26T03:18:30;97151.24;;;-0.19;44.30
60267;BME280;46125;61.360;-149.532;2022-10-26T03:20:58;97144.30;;;-0.32;40.63
60267;BME280;46125;61.360;-149.532;2022-10-26T03:23:27;97140.02;;;-1.44;45.78
60267;BME280;46125;61.360;-149.532;2022-10-26T03:25:56;97133.66;;;0.63;42.69
60267;BME280;46125;61.360;-149.532;2022-10-26T03:28:25;97135.38;;;-0.00;42.41
60267;BME280;46125;61.360;-149.532;2022-10-26T03:30:59;97121.57;;;-0.19;45.22
60267;BME280;46125;61.360;-149.532;2022-10-26T03:33:28;97103.92;;;-1.61;47.49
60267;BME280;46125;61.360;-149.532;2022-10-26T03:35:56;97099.56;;;-2.07;52.27
60267;BME280;46125;61.360;-149.532;2022-10-26T03:38:26;97085.13;;;-1.81;48.82
60267;BME280;46125;61.360;-149.532;2022-10-26T03:40:55;97092.73;;;-1.23;49.18
60267;BME280;46125;61.360;-149.532;2022-10-26T03:43:24;97082.27;;;-0.97;47.90
60267;BME280;46125;61.360;-149.532;2022-10-26T03:45:52;97078.91;;;-0.31;45.58
60267;BME280;46125;61.360;-149.532;2022-10-26T03:48:21;97063.39;;;-0.19;44.60
60267;BME280;46125;61.360;-149.532;2022-10-26T03:50:49;97058.20;;;-1.17;48.34
60267;BME280;46125;61.360;-149.532;2022-10-26T03:53:18;97049.69;;;-1.15;45.36
60267;BME280;46125;61.360;-149.532;2022-10-26T03:55:47;97048.29;;;-0.24;47.56
60267;BME280;46125;61.360;-149.532;2022-10-26T03:58:15;97046.38;;;-1.11;47.84
60267;BME280;46125;61.360;-149.532;2022-10-26T04:00:50;97025.91;;;-0.52;46.30
60267;BME280;46125;61.360;-149.532;2022-10-26T04:03:18;97027.46;;;-1.02;48.87
60267;BME280;46125;61.360;-149.532;2022-10-26T04:05:47;97019.04;;;-0.79;48.33
60267;BME280;46125;61.360;-149.532;2022-10-26T04:08:15;97002.34;;;-0.78;46.02
60267;BME280;46125;61.360;-149.532;2022-10-26T04:10:45;96992.81;;;-2.38;51.40
60267;BME280;46125;61.360;-149.532;2022-10-26T04:13:14;96980.42;;;-1.12;48.61
60267;BME280;46125;61.360;-149.532;2022-10-26T04:15:43;96977.78;;;-1.06;47.28
60267;BME280;46125;61.360;-149.532;2022-10-26T04:18:11;96964.12;;;-0.42;46.13
60267;BME280;46125;61.360;-149.532;2022-10-26T04:20:45;96959.22;;;-0.37;43.57
60267;BME280;46125;61.360;-149.532;2022-10-26T04:23:15;96948.01;;;0.26;43.91
60267;BME280;46125;61.360;-149.532;2022-10-26T04:25:44;96940.67;;;0.56;44.73
60267;BME280;46125;61.360;-149.532;2022-10-26T04:28:13;96933.59;;;0.48;42.77
60267;BME280;46125;61.360;-149.532;2022-10-26T04:30:42;96932.89;;;-0.89;43.91
60267;BME280;46125;61.360;-149.532;2022-10-26T04:33:11;96920.34;;;0.21;41.14
60267;BME280;46125;61.360;-149.532;2022-10-26T04:35:39;96923.79;;;-0.38;46.55
60267;BME280;46125;61.360;-149.532;2022-10-26T04:38:10;96913.48;;;-2.08;49.78
60267;BME280;46125;61.360;-149.532;2022-10-26T04:40:40;96881.86;;;-1.64;47.60
60267;BME280;46125;61.360;-149.532;2022-10-26T04:43:09;96900.23;;;-2.22;51.96
60267;BME280;46125;61.360;-149.532;2022-10-26T04:45:37;96894.94;;;-1.49;51.89
60267;BME280;46125;61.360;-149.532;2022-10-26T04:48:08;96876.71;;;-1.07;47.91
60267;BME280;46125;61.360;-149.532;2022-10-26T04:50:39;96881.78;;;-1.02;49.16
60267;BME280;46125;61.360;-149.532;2022-10-26T04:53:08;96868.37;;;-0.72;47.02
60267;BME280;46125;61.360;-149.532;2022-10-26T04:55:37;96864.07;;;0.26;44.20
60267;BME280;46125;61.360;-149.532;2022-10-26T04:58:05;96868.38;;;-0.48;46.91
60267;BME280;46125;61.360;-149.532;2022-10-26T05:00:36;96845.01;;;-1.98;47.35
60267;BME280;46125;61.360;-149.532;2022-10-26T05:03:05;96854.56;;;-1.74;49.49
60267;BME280;46125;61.360;-149.532;2022-10-26T05:05:35;96837.56;;;-0.54;46.17
60267;BME280;46125;61.360;-149.532;2022-10-26T05:08:04;96839.62;;;-1.13;48.36
60267;BME280;46125;61.360;-149.532;2022-10-26T05:10:33;96841.63;;;-1.08;49.86
60267;BME280;46125;61.360;-149.532;2022-10-26T05:13:02;96838.46;;;-1.06;46.45
60267;BME280;46125;61.360;-149.532;2022-10-26T05:15:31;96833.23;;;-0.52;46.90
60267;BME280;46125;61.360;-149.532;2022-10-26T05:18:01;96827.12;;;0.09;44.54
60267;BME280;46125;61.360;-149.532;2022-10-26T05:20:32;96831.23;;;-2.72;53.10
60267;BME280;46125;61.360;-149.532;2022-10-26T05:23:03;96821.07;;;-0.61;46.95
60267;BME280;46125;61.360;-149.532;2022-10-26T05:25:35;96818.73;;;-0.41;47.43
60267;BME280;46125;61.360;-149.532;2022-10-26T05:28:06;96802.99;;;0.25;45.04
60267;BME280;46125;61.360;-149.532;2022-10-26T05:30:34;96803.38;;;0.41;45.05
60267;BME280;46125;61.360;-149.532;2022-10-26T05:33:03;96806.53;;;-0.32;49.49
60267;BME280;46125;61.360;-149.532;2022-10-26T05:35:32;96802.16;;;-0.27;47.81
60267;BME280;46125;61.360;-149.532;2022-10-26T05:38:06;96796.55;;;-0.37;46.46
60267;BME280;46125;61.360;-149.532;2022-10-26T05:40:35;96793.82;;;0.04;44.28
60267;BME280;46125;61.360;-149.532;2022-10-26T05:43:05;96781.67;;;0.27;43.60
60267;BME280;46125;61.360;-149.532;2022-10-26T05:45:33;96786.93;;;0.29;45.59
60267;BME280;46125;61.360;-149.532;2022-10-26T05:48:02;96786.86;;;0.57;44.91
60267;BME280;46125;61.360;-149.532;2022-10-26T05:50:31;96803.07;;;-1.25;50.63
60267;BME280;46125;61.360;-149.532;2022-10-26T05:52:59;96791.26;;;-0.70;47.71
60267;BME280;46125;61.360;-149.532;2022-10-26T05:55:29;96791.10;;;-1.27;50.09
60267;BME280;46125;61.360;-149.532;2022-10-26T05:57:58;96776.62;;;-0.32;47.12
60267;BME280;46125;61.360;-149.532;2022-10-26T06:00:27;96770.80;;;-0.52;45.62
60267;BME280;46125;61.360;-149.532;2022-10-26T06:03:07;96759.70;;;0.50;44.24
60267;BME280;46125;61.360;-149.532;2022-10-26T06:05:49;96760.71;;;0.28;43.96
60267;BME280;46125;61.360;-149.532;2022-10-26T06:08:19;96759.74;;;0.35;44.87
60267;BME280;46125;61.360;-149.532;2022-10-26T06:10:49;96743.84;;;0.33;43.90
60267;BME280;46125;61.360;-149.532;2022-10-26T06:13:19;96752.84;;;-0.80;46.13
60267;BME280;46125;61.360;-149.532;2022-10-26T06:15:58;96758.84;;;-0.24;46.60
60267;BME280;46125;61.360;-149.532;2022-10-26T06:18:38;96742.86;;;0.08;44.26
60267;BME280;46125;61.360;-149.532;2022-10-26T06:21:20;96743.33;;;-1.14;49.52
60267;BME280;46125;61.360;-149.532;2022-10-26T06:23:56;96732.99;;;-0.14;46.66
60267;BME280;46125;61.360;-149.532;2022-10-26T06:26:33;96723.37;;;0.59;46.53
60267;BME280;46125;61.360;-149.532;2022-10-26T06:29:13;96719.72;;;-0.41;45.08
60267;BME280;46125;61.360;-149.532;2022-10-26T06:31:45;96716.97;;;0.44;45.16
60267;BME280;46125;61.360;-149.532;2022-10-26T06:34:21;96708.03;;;1.01;43.53
60267;BME280;46125;61.360;-149.532;2022-10-26T06:36:52;96706.18;;;0.47;46.10
60267;BME280;46125;61.360;-149.532;2022-10-26T06:39:22;96698.68;;;0.76;43.43
60267;BME280;46125;61.360;-149.532;2022-10-26T06:41:53;96693.19;;;0.26;45.36
60267;BME280;46125;61.360;-149.532;2022-10-26T06:44:24;96688.76;;;0.98;44.31
60267;BME280;46125;61.360;-149.532;2022-10-26T06:46:58;96687.02;;;0.36;43.31
60267;BME280;46125;61.360;-149.532;2022-10-26T06:49:33;96673.32;;;1.38;43.56
60267;BME280;46125;61.360;-149.532;2022-10-26T06:52:11;96675.01;;;-0.90;43.48
60267;BME280;46125;61.360;-149.532;2022-10-26T06:54:47;96672.51;;;0.81;44.65
60267;BME280;46125;61.360;-149.532;2022-10-26T06:57:18;96667.51;;;-0.35;43.07
60267;BME280;46125;61.360;-149.532;2022-10-26T06:59:49;96660.63;;;0.40;43.42
60267;BME280;46125;61.360;-149.532;2022-10-26T07:02:19;96645.14;;;1.06;42.36
60267;BME280;46125;61.360;-149.532;2022-10-26T07:04:47;96645.40;;;0.83;42.75
60267;BME280;46125;61.360;-149.532;2022-10-26T07:07:18;96650.64;;;1.03;43.71
60267;BME280;46125;61.360;-149.532;2022-10-26T07:09:47;96632.10;;;0.95;43.69
60267;BME280;46125;61.360;-149.532;2022-10-26T07:12:16;96637.25;;;-0.52;48.65
60267;BME280;46125;61.360;-149.532;2022-10-26T07:14:44;96625.75;;;0.22;46.33
60267;BME280;46125;61.360;-149.532;2022-10-26T07:17:13;96623.01;;;0.89;42.82
60267;BME280;46125;61.360;-149.532;2022-10-26T07:19:41;96609.84;;;0.53;42.50
60267;BME280;46125;61.360;-149.532;2022-10-26T07:22:10;96612.66;;;0.16;42.71
60267;BME280;46125;61.360;-149.532;2022-10-26T07:24:39;96599.51;;;1.43;42.56
60267;BME280;46125;61.360;-149.532;2022-10-26T07:27:07;96594.23;;;0.99;39.89
60267;BME280;46125;61.360;-149.532;2022-10-26T07:29:36;96593.23;;;0.67;41.65
60267;BME280;46125;61.360;-149.532;2022-10-26T07:32:05;96590.54;;;1.05;42.30
60267;BME280;46125;61.360;-149.532;2022-10-26T07:34:34;96583.31;;;0.64;40.94
60267;BME280;46125;61.360;-149.532;2022-10-26T07:37:03;96570.10;;;-0.11;44.29
60267;BME280;46125;61.360;-149.532;2022-10-26T07:39:31;96558.76;;;-0.04;40.73
60267;BME280;46125;61.360;-149.532;2022-10-26T07:42:00;96560.39;;;-0.99;42.26
60267;BME280;46125;61.360;-149.532;2022-10-26T07:44:30;96553.54;;;0.15;39.76
60267;BME280;46125;61.360;-149.532;2022-10-26T07:47:04;96546.94;;;-1.06;42.79
60267;BME280;46125;61.360;-149.532;2022-10-26T07:49:33;96537.17;;;-0.76;42.16
60267;BME280;46125;61.360;-149.532;2022-10-26T07:52:03;96520.96;;;-1.48;44.59
60267;BME280;46125;61.360;-149.532;2022-10-26T07:54:32;96536.90;;;-2.07;46.20
60267;BME280;46125;61.360;-149.532;2022-10-26T07:57:00;96522.29;;;-0.15;43.80
60267;BME280;46125;61.360;-149.532;2022-10-26T07:59:29;96508.66;;;-0.99;41.88
60267;BME280;46125;61.360;-149.532;2022-10-26T08:02:02;96507.85;;;-0.87;43.63
60267;BME280;46125;61.360;-149.532;2022-10-26T08:04:31;96501.44;;;-0.87;43.03
60267;BME280;46125;61.360;-149.532;2022-10-26T08:06:59;96499.90;;;-0.45;44.64
60267;BME280;46125;61.360;-149.532;2022-10-26T08:09:28;96493.56;;;0.40;40.79
60267;BME280;46125;61.360;-149.532;2022-10-26T08:11:56;96491.91;;;-2.26;48.77
60267;BME280;46125;61.360;-149.532;2022-10-26T08:14:25;96476.73;;;0.38;43.02
60267;BME280;46125;61.360;-149.532;2022-10-26T08:16:54;96473.55;;;-0.73;42.46
60267;BME280;46125;61.360;-149.532;2022-10-26T08:19:23;96468.63;;;0.21;42.37
60267;BME280;46125;61.360;-149.532;2022-10-26T08:21:53;96461.17;;;-1.37;46.15
60267;BME280;46125;61.360;-149.532;2022-10-26T08:24:21;96455.39;;;0.24;43.01
60267;BME280;46125;61.360;-149.532;2022-10-26T08:26:50;96456.47;;;-1.66;42.27
60267;BME280;46125;61.360;-149.532;2022-10-26T08:29:18;96444.11;;;-0.05;43.11
60267;BME280;46125;61.360;-149.532;2022-10-26T08:31:48;96426.71;;;-1.20;44.72
60267;BME280;46125;61.360;-149.532;2022-10-26T08:34:16;96430.44;;;0.01;44.07
60267;BME280;46125;61.360;-149.532;2022-10-26T08:36:44;96426.09;;;0.53;41.88
60267;BME280;46125;61.360;-149.532;2022-10-26T08:39:13;96422.83;;;-0.11;45.17
60267;BME280;46125;61.360;-149.532;2022-10-26T08:41:44;96425.21;;;0.12;44.69
60267;BME280;46125;61.360;-149.532;2022-10-26T08:44:22;96418.45;;;-0.09;42.62
60267;BME280;46125;61.360;-149.532;2022-10-26T08:46:57;96419.23;;;-1.02;44.84
60267;BME280;46125;61.360;-149.532;2022-10-26T08:49:31;96405.39;;;-0.25;44.86
60267;BME280;46125;61.360;-149.532;2022-10-26T08:52:04;96408.92;;;-0.07;43.03
60267;BME280;46125;61.360;-149.532;2022-10-26T08:54:37;96405.15;;;-0.14;44.21
60267;BME280;46125;61.360;-149.532;2022-10-26T08:57:15;96396.17;;;-0.05;42.48
60267;BME280;46125;61.360;-149.532;2022-10-26T08:59:51;96393.06;;;0.83;39.42
60267;BME280;46125;61.360;-149.532;2022-10-26T09:02:21;96383.80;;;1.07;38.81
60267;BME280;46125;61.360;-149.532;2022-10-26T09:04:49;96383.36;;;-0.22;44.34
60267;BME280;46125;61.360;-149.532;2022-10-26T09:07:32;96380.30;;;0.50;40.47
60267;BME280;46125;61.360;-149.532;2022-10-26T09:10:15;96376.42;;;0.37;40.66
60267;BME280;46125;61.360;-149.532;2022-10-26T09:12:51;96372.79;;;1.06;39.88
60267;BME280;46125;61.360;-149.532;2022-10-26T09:15:27;96373.41;;;-0.47;41.24
60267;BME280;46125;61.360;-149.532;2022-10-26T09:18:11;96366.11;;;0.30;39.17
60267;BME280;46125;61.360;-149.532;2022-10-26T09:20:52;96362.09;;;0.74;39.16
60267;BME280;46125;61.360;-149.532;2022-10-26T09:23:34;96359.27;;;-0.16;39.20
60267;BME280;46125;61.360;-149.532;2022-10-26T09:26:10;96355.60;;;0.34;40.30
60267;BME280;46125;61.360;-149.532;2022-10-26T09:28:41;96344.65;;;1.26;38.14
60267;BME280;46125;61.360;-149.532;2022-10-26T09:31:15;96343.96;;;1.16;39.64
60267;BME280;46125;61.360;-149.532;2022-10-26T09:33:44;96339.90;;;0.50;38.76
60267;BME280;46125;61.360;-149.532;2022-10-26T09:36:17;96335.79;;;1.39;39.19
60267;BME280;46125;61.360;-149.532;2022-10-26T09:38:52;96327.70;;;1.07;39.98
60267;BME280;46125;61.360;-149.532;2022-10-26T09:41:27;96325.75;;;-1.05;41.89
60267;BME280;46125;61.360;-149.532;2022-10-26T09:44:03;96321.89;;;-0.63;42.82
60267;BME280;46125;61.360;-149.532;2022-10-26T09:46:43;96315.14;;;-1.66;42.79
60267;BME280;46125;61.360;-149.532;2022-10-26T09:49:16;96325.61;;;-0.23;41.37
60267;BME280;46125;61.360;-149.532;2022-10-26T09:51:47;96315.69;;;0.04;40.85
60267;BME280;46125;61.360;-149.532;2022-10-26T09:54:18;96313.33;;;-1.92;48.22
60267;BME280;46125;61.360;-149.532;2022-10-26T09:56:50;96312.08;;;-0.11;45.17
60267;BME280;46125;61.360;-149.532;2022-10-26T09:59:23;96304.67;;;-0.34;46.53
60267;BME280;46125;61.360;-149.532;2022-10-26T10:01:52;96300.77;;;-0.10;46.30
60267;BME280;46125;61.360;-149.532;2022-10-26T10:04:21;96290.21;;;-0.80;48.78
60267;BME280;46125;61.360;-149.532;2022-10-26T10:06:52;96287.45;;;-0.14;47.06
60267;BME280;46125;61.360;-149.532;2022-10-26T10:09:25;96284.25;;;-1.16;50.16
60267;BME280;46125;61.360;-149.532;2022-10-26T10:11:56;96278.05;;;-0.77;48.88
60267;BME280;46125;61.360;-149.532;2022-10-26T10:14:27;96276.25;;;-0.71;48.51
60267;BME280;46125;61.360;-149.532;2022-10-26T10:16:58;96271.58;;;-0.72;48.75
60267;BME280;46125;61.360;-149.532;2022-10-26T10:19:29;96261.21;;;-1.75;52.01
60267;BME280;46125;61.360;-149.532;2022-10-26T10:22:00;96262.41;;;-2.62;54.42
60267;BME280;46125;61.360;-149.532;2022-10-26T10:24:30;96259.31;;;-1.39;52.52
60267;BME280;46125;61.360;-149.532;2022-10-26T10:27:01;96248.12;;;-2.20;53.46
60267;BME280;46125;61.360;-149.532;2022-10-26T10:29:30;96243.02;;;-1.67;52.36
60267;BME280;46125;61.360;-149.532;2022-10-26T10:32:01;96236.44;;;-0.31;49.03
60267;BME280;46125;61.360;-149.532;2022-10-26T10:34:31;96231.36;;;-0.88;49.95
60267;BME280;46125;61.360;-149.532;2022-10-26T10:37:00;96228.40;;;-2.27;53.43
60267;BME280;46125;61.360;-149.532;2022-10-26T10:39:37;96219.63;;;-0.33;49.02
60267;BME280;46125;61.360;-149.532;2022-10-26T10:42:15;96217.95;;;0.13;48.18
60267;BME280;46125;61.360;-149.532;2022-10-26T10:44:45;96221.78;;;-0.13;49.79
60267;BME280;46125;61.360;-149.532;2022-10-26T10:47:20;96216.69;;;-0.58;49.16
60267;BME280;46125;61.360;-149.532;2022-10-26T10:49:54;96216.17;;;-0.38;49.57
60267;BME280;46125;61.360;-149.532;2022-10-26T10:52:27;96210.42;;;-0.43;48.26
60267;BME280;46125;61.360;-149.532;2022-10-26T10:55:06;96212.66;;;-1.16;51.62
60267;BME280;46125;61.360;-149.532;2022-10-26T10:57:48;96203.44;;;-1.00;49.80
60267;BME280;46125;61.360;-149.532;2022-10-26T11:00:22;96195.94;;;-0.76;49.31
60267;BME280;46125;61.360;-149.532;2022-10-26T11:03:10;96191.76;;;0.14;47.90
60267;BME280;46125;61.360;-149.532;2022-10-26T11:05:53;96187.06;;;-1.34;51.35
60267;BME280;46125;61.360;-149.532;2022-10-26T11:08:29;96181.35;;;-0.76;49.62
60267;BME280;46125;61.360;-149.532;2022-10-26T11:11:02;96180.57;;;-2.19;51.76
60267;BME280;46125;61.360;-149.532;2022-10-26T11:13:36;96177.53;;;-2.78;56.49
60267;BME280;46125;61.360;-149.532;2022-10-26T11:16:12;96171.38;;;-1.02;50.39
60267;BME280;46125;61.360;-149.532;2022-10-26T11:18:44;96168.81;;;-1.36;50.93
60267;BME280;46125;61.360;-149.532;2022-10-26T11:21:24;96159.74;;;-2.06;53.76
60267;BME280;46125;61.360;-149.532;2022-10-26T11:24:00;96155.88;;;-0.72;50.85
60267;BME280;46125;61.360;-149.532;2022-10-26T11:26:34;96154.06;;;-2.25;52.66
60267;BME280;46125;61.360;-149.532;2022-10-26T11:29:10;96154.28;;;-0.99;51.89
60267;BME280;46125;61.360;-149.532;2022-10-26T11:31:47;96147.87;;;-1.09;51.39
60267;BME280;46125;61.360;-149.532;2022-10-26T11:34:25;96143.41;;;-1.01;51.54
60267;BME280;46125;61.360;-149.532;2022-10-26T11:37:02;96142.82;;;-3.02;55.45
60267;BME280;46125;61.360;-149.532;2022-10-26T11:39:41;96139.77;;;-0.77;51.47
60267;BME280;46125;61.360;-149.532;2022-10-26T11:42:19;96135.01;;;-0.83;51.13
60267;BME280;46125;61.360;-149.532;2022-10-26T11:44:54;96133.37;;;-1.09;52.33
60267;BME280;46125;61.360;-149.532;2022-10-26T11:47:29;96127.09;;;-2.10;52.86
60267;BME280;46125;61.360;-149.532;2022-10-26T11:50:04;96123.03;;;-0.61;49.96
60267;BME280;46125;61.360;-149.532;2022-10-26T11:52:40;96113.88;;;-0.38;49.40
60267;BME280;46125;61.360;-149.532;2022-10-26T11:55:11;96109.87;;;-0.39;49.50
60267;BME280;46125;61.360;-149.532;2022-10-26T11:57:40;96109.06;;;-0.98;51.83
60267;BME280;46125;61.360;-149.532;2022-10-26T12:00:16;96099.58;;;-0.45;50.73
60267;BME280;46125;61.360;-149.532;2022-10-26T12:02:49;96101.25;;;-0.59;51.45
60267;BME280;46125;61.360;-149.532;2022-10-26T12:05:24;96090.44;;;-0.53;50.43
60267;BME280;46125;61.360;-149.532;2022-10-26T12:07:56;96092.15;;;-1.22;52.58
60267;BME280;46125;61.360;-149.532;2022-10-26T12:10:28;96081.42;;;-0.19;50.75
60267;BME280;46125;61.360;-149.532;2022-10-26T12:13:06;96081.39;;;-1.22;52.56
60267;BME280;46125;61.360;-149.532;2022-10-26T12:15:41;96079.93;;;-4.06;59.13
60267;BME280;46125;61.360;-149.532;2022-10-26T12:18:16;96074.15;;;-1.40;53.87
60267;BME280;46125;61.360;-149.532;2022-10-26T12:20:54;96070.68;;;-1.29;53.63
60267;BME280;46125;61.360;-149.532;2022-10-26T12:23:23;96062.55;;;-1.54;52.70
60267;BME280;46125;61.360;-149.532;2022-10-26T12:26:37;96059.08;;;-1.58;54.85
60267;BME280;46125;61.360;-149.532;2022-10-26T12:29:31;96052.46;;;-1.22;52.46
60267;BME280;46125;61.360;-149.532;2022-10-26T12:32:00;96045.04;;;-1.36;54.33
60267;BME280;46125;61.360;-149.532;2022-10-26T12:34:58;96040.75;;;-3.33;57.48
60267;BME280;46125;61.360;-149.532;2022-10-26T12:37:34;96034.98;;;-1.52;53.65
60267;BME280;46125;61.360;-149.532;2022-10-26T12:41:13;96030.04;;;-0.54;52.40
60267;BME280;46125;61.360;-149.532;2022-10-26T12:43:46;96024.16;;;-1.10;53.02
60267;BME280;46125;61.360;-149.532;2022-10-26T12:46:43;96018.10;;;-0.78;53.00
60267;BME280;46125;61.360;-149.532;2022-10-26T12:50:23;96009.34;;;-0.10;52.04
60267;BME280;46125;61.360;-149.532;2022-10-26T12:52:53;96005.62;;;-2.19;54.98
60267;BME280;46125;61.360;-149.532;2022-10-26T12:55:33;96001.91;;;-1.03;53.46
60267;BME280;46125;61.360;-149.532;2022-10-26T12:58:22;95995.68;;;-1.80;55.01
60267;BME280;46125;61.360;-149.532;2022-10-26T13:01:18;95989.33;;;-0.92;53.33
60267;BME280;46125;61.360;-149.532;2022-10-26T13:04:00;95985.68;;;-1.51;53.95